Pontiac, MI (48340)

2:52 PM EST on January 24, 2017 (GMT -0500)
Lake Angelus Shores | | Change Station

Elev 0 ft 42.69 °N, 83.33 °W | Updated 5 minutes ago

Overcast
Overcast
38.1 °F
Feels Like 33 °F
N
6.2
Wind Variable Wind from WNW
Gusts 10.6 mph

Today
High -- | Low -- °F
--% Chance of Precip.
Yesterday
High -- | Low -- °F
Precip. -- in
Pressure 29.73 in
Visibility 5.0 miles
Clouds Overcast 500 ft
Windchill 33 °F
Dew Point 37 °F
Humidity 95%
Rainfall Not available.
Snow Depth Not available.
7:54 AM 5:36 PM
Waning Crescent, 10% visible
METAR KPTK 241853Z 30009KT 5SM BR OVC005 03/02 A2971 RMK AO2 DZE47 SLP067 P0000 T00280017
Pressure 29.73 in
Visibility 5.0 miles
Clouds Overcast 500 ft
Windchill 33 °F
Dew Point 37 °F
Humidity 95%
Rainfall Not available.
Snow Depth Not available.
7:54 AM 5:36 PM
Waning Crescent, 10% visible
METAR KPTK 241853Z 30009KT 5SM BR OVC005 03/02 A2971 RMK AO2 DZE47 SLP067 P0000 T00280017

Get Your Daily Forecast Email!

Thanks for signing up!

Be on the lookout for a verification email in your inbox.

You'll start receiving the daily forecast at 8 AM.

×

10-Day Weather Forecast

Almanac

Astronomy

Jan. 24, 2017 Rise Set
Actual Time
Civil Twilight
Nautical Twilight
Astronomical Twilight
Moon
Length of Visible Light
Length of Day
Tomorrow will be .
, % of the Moon is Illuminated

Today's Extremes

State Highs State Lows

Community

WunderPhotos

Upload Photos

1,962,540 photos uploaded!

WunderBlog® & News

Nearby

Air Quality

  Air Quality AQ Index Pollutant
Not available.

Snow Depth

Station Depth Elevation

Earthquake Activity

City Distance Mag. Time & Date
Minimum magnitude displayed is 2.5.

Coastal Water Temperatures

Place Temperature

Stations

Nearby Weather Stations

Station Location Temp. Windchill Dew Point Humidity Wind Precip. Elev Updated Type
                   

Watches & Warnings

There are currently no watches in effect.